Time;durP1;ratioP1;P1;durP2;ratioP2;P2;SDS_P1;SDS_P2;PMS_P1;PMS_P2;Temp;Humidity;BMP_temperature;BMP_pressure;BME280_temperature;BME280_humidity;BME280_pressure;Samples;Min_cycle;Max_cycle;Signal;HPM_P1;HPM_P2
2021/08/29 00:01:06;;;;;;;;;;;9.50;99.90;;;;;;5094051;28;20304;-73
2021/08/29 00:03:32;;;;;;;;;;;9.60;99.90;;;;;;5093908;28;19909;-73
2021/08/29 00:05:57;;;;;;;;;;;9.60;99.90;;;;;;5113198;28;20288;-73
2021/08/29 00:08:23;;;;;;;;;;;9.50;99.90;;;;;;5113964;28;19915;-73
2021/08/29 00:10:48;;;;;;;;;;;9.50;99.90;;;;;;5114098;28;19916;-73
2021/08/29 00:13:14;;;;;;;;;;;9.50;99.90;;;;;;5114337;28;19907;-73
2021/08/29 00:15:39;;;;;;;;;;;9.50;99.90;;;;;;5114247;28;19989;-73
2021/08/29 00:18:05;;;;;;;;;;;9.50;99.90;;;;;;5113905;28;20265;-73
2021/08/29 00:20:33;;;;;;;;;;;9.60;99.90;;;;;;5113932;28;20365;-73
2021/08/29 00:22:59;;;;;;;;;;;9.60;99.90;;;;;;5114109;28;19930;-73
2021/08/29 00:25:25;;;;;;;;;;;9.70;99.90;;;;;;5114062;28;20356;-73
2021/08/29 00:27:50;;;;;;;;;;;9.70;99.90;;;;;;5113666;28;19947;-73
2021/08/29 00:30:16;;;;;;;;;;;9.70;99.90;;;;;;5114375;28;19931;-73
2021/08/29 00:32:41;;;;;;;;;;;9.70;99.90;;;;;;5109010;28;19912;-73
2021/08/29 00:35:07;;;;;;;;;;;9.70;99.90;;;;;;5093214;28;20418;-73
2021/08/29 00:37:32;;;;;;;;;;;9.60;99.90;;;;;;5093166;28;19908;-73
2021/08/29 00:39:59;;;;;;;;;;;9.70;99.90;;;;;;5093199;28;19915;-73
2021/08/29 00:42:24;;;;;;;;;;;9.70;99.90;;;;;;5093366;28;20399;-73
2021/08/29 00:44:50;;;;;;;;;;;9.70;99.90;;;;;;5093293;28;19908;-73
2021/08/29 00:47:15;;;;;;;;;;;9.70;99.90;;;;;;5092818;28;19942;-73
2021/08/29 00:49:41;;;;;;;;;;;9.80;99.90;;;;;;5092950;28;20295;-73
2021/08/29 00:52:07;;;;;;;;;;;9.80;99.90;;;;;;5093747;28;20356;-73
2021/08/29 00:54:33;;;;;;;;;;;9.80;99.90;;;;;;5113242;28;19908;-73
2021/08/29 00:57:00;;;;;;;;;;;9.80;99.90;;;;;;5113106;28;19907;-73
2021/08/29 00:59:25;;;;;;;;;;;9.90;99.90;;;;;;5113345;28;19918;-73
2021/08/29 01:02:11;;;;;;;;;;;9.90;99.90;;;;;;5113113;28;19912;-73
2021/08/29 01:04:55;;;;;;;;;;;10.00;99.90;;;;;;5113395;28;19907;-73
2021/08/29 01:07:47;;;;;;;;;;;10.10;99.90;;;;;;5112102;28;19908;-73
2021/08/29 01:10:20;;;;;;;;;;;10.20;99.90;;;;;;5107665;28;19916;-73
2021/08/29 01:12:48;;;;;;;;;;;10.20;99.90;;;;;;5113094;28;19908;-73
2021/08/29 01:15:14;;;;;;;;;;;10.20;99.90;;;;;;5113121;28;20441;-73
2021/08/29 01:17:41;;;;;;;;;;;10.20;99.90;;;;;;5112655;28;19908;-73
2021/08/29 01:20:07;;;;;;;;;;;10.20;99.90;;;;;;5093549;28;19962;-73
2021/08/29 01:22:33;;;;;;;;;;;10.20;99.90;;;;;;5092322;28;20322;-73
2021/08/29 01:24:58;;;;;;;;;;;10.30;99.90;;;;;;5092850;28;19915;-73
2021/08/29 01:27:27;;;;;;;;;;;10.30;99.90;;;;;;5092215;28;20332;-73
2021/08/29 01:29:52;;;;;;;;;;;10.30;99.90;;;;;;5092456;28;19919;-73
2021/08/29 01:32:19;;;;;;;;;;;10.30;99.90;;;;;;5091383;28;20105;-73
2021/08/29 01:34:46;;;;;;;;;;;10.40;99.90;;;;;;5091046;28;19916;-73
2021/08/29 01:37:12;;;;;;;;;;;10.40;99.90;;;;;;5092373;28;20305;-73
2021/08/29 01:39:38;;;;;;;;;;;10.40;99.90;;;;;;5092039;28;19909;-73
2021/08/29 01:42:03;;;;;;;;;;;10.40;99.90;;;;;;5092053;28;19919;-73
2021/08/29 01:44:29;;;;;;;;;;;10.40;99.90;;;;;;5092241;28;19915;-73
2021/08/29 01:46:55;;;;;;;;;;;10.40;99.90;;;;;;5091757;28;19923;-73
2021/08/29 01:49:22;;;;;;;;;;;10.40;99.90;;;;;;5092128;28;19915;-73
2021/08/29 01:51:47;;;;;;;;;;;10.40;99.90;;;;;;5091786;28;20280;-73
2021/08/29 01:54:13;;;;;;;;;;;10.50;99.90;;;;;;5091904;28;19912;-72
2021/08/29 01:56:59;;;;;;;;;;;10.40;99.90;;;;;;5091622;28;19915;-73
2021/08/29 01:59:24;;;;;;;;;;;10.50;99.90;;;;;;5091951;28;19915;-73
2021/08/29 02:01:50;;;;;;;;;;;10.50;99.90;;;;;;5091679;28;20308;-73
2021/08/29 02:04:16;;;;;;;;;;;10.40;99.90;;;;;;5104817;28;19981;-73
2021/08/29 02:06:43;;;;;;;;;;;10.40;99.90;;;;;;5094411;28;19908;-73
2021/08/29 02:09:10;;;;;;;;;;;10.40;99.90;;;;;;5091817;28;20287;-73
2021/08/29 02:11:46;;;;;;;;;;;10.40;99.90;;;;;;5091656;28;19915;-73
2021/08/29 02:14:16;;;;;;;;;;;10.40;99.90;;;;;;5091701;28;19919;-73
2021/08/29 02:16:43;;;;;;;;;;;10.50;99.90;;;;;;5091367;28;20381;-73
2021/08/29 02:19:09;;;;;;;;;;;10.50;99.90;;;;;;5091401;28;19950;-73
2021/08/29 02:21:35;;;;;;;;;;;10.50;99.90;;;;;;5091362;28;19950;-73
2021/08/29 02:24:03;;;;;;;;;;;10.50;99.90;;;;;;5090292;28;20333;-73
2021/08/29 02:26:29;;;;;;;;;;;10.60;99.90;;;;;;5091163;28;20379;-73
2021/08/29 02:28:55;;;;;;;;;;;10.60;99.90;;;;;;5091554;28;19908;-72
2021/08/29 02:31:21;;;;;;;;;;;10.60;99.90;;;;;;5091374;28;19946;-72
2021/08/29 02:33:47;;;;;;;;;;;10.60;99.90;;;;;;5088581;28;20369;-73
2021/08/29 02:36:16;;;;;;;;;;;10.60;99.90;;;;;;5089524;28;19933;-72
2021/08/29 02:38:43;;;;;;;;;;;10.50;99.90;;;;;;5091437;28;20352;-73
2021/08/29 02:41:09;;;;;;;;;;;10.60;99.90;;;;;;5091238;28;19951;-72
2021/08/29 02:43:35;;;;;;;;;;;10.60;99.90;;;;;;5091331;28;19916;-72
2021/08/29 02:46:01;;;;;;;;;;;10.60;99.90;;;;;;5090992;28;19916;-72
2021/08/29 02:48:28;;;;;;;;;;;10.60;99.90;;;;;;5091293;28;19986;-73
2021/08/29 02:50:54;;;;;;;;;;;10.70;99.90;;;;;;5091368;28;19908;-73
2021/08/29 02:53:19;;;;;;;;;;;10.60;99.90;;;;;;5092350;28;19914;-73
2021/08/29 02:55:52;;;;;;;;;;;10.70;99.90;;;;;;5092365;28;20349;-72
2021/08/29 02:58:18;;;;;;;;;;;10.60;99.90;;;;;;5091140;28;19909;-72
2021/08/29 03:00:44;;;;;;;;;;;10.60;99.90;;;;;;5090880;28;19980;-72
2021/08/29 03:03:10;;;;;;;;;;;10.60;99.90;;;;;;5089637;28;19954;-72
2021/08/29 03:05:35;;;;;;;;;;;10.60;99.90;;;;;;5108425;28;20308;-72
2021/08/29 03:08:01;;;;;;;;;;;10.60;99.90;;;;;;5112113;28;19961;-72
2021/08/29 03:10:26;;;;;;;;;;;10.60;99.90;;;;;;5111629;28;19907;-72
2021/08/29 03:12:52;;;;;;;;;;;10.60;99.90;;;;;;5111445;28;19908;-72
2021/08/29 03:15:18;;;;;;;;;;;10.70;99.90;;;;;;5111374;28;19907;-72
2021/08/29 03:17:43;;;;;;;;;;;10.60;99.90;;;;;;5111068;28;19908;-72
2021/08/29 03:20:09;;;;;;;;;;;10.60;99.90;;;;;;5111434;28;19908;-72
2021/08/29 03:22:35;;;;;;;;;;;10.60;99.90;;;;;;5111574;28;19908;-72
2021/08/29 03:25:01;;;;;;;;;;;10.60;99.90;;;;;;5111397;28;19915;-72
2021/08/29 03:27:27;;;;;;;;;;;10.60;99.90;;;;;;5111525;28;20440;-72
2021/08/29 03:29:52;;;;;;;;;;;10.60;99.90;;;;;;5111398;28;20119;-72
2021/08/29 03:32:19;;;;;;;;;;;10.60;99.90;;;;;;5115229;28;19919;-72
2021/08/29 03:34:44;;;;;;;;;;;10.60;99.90;;;;;;5093876;28;20017;-72
2021/08/29 03:37:11;;;;;;;;;;;10.60;99.90;;;;;;5113517;28;19959;-72
2021/08/29 03:39:37;;;;;;;;;;;10.60;99.90;;;;;;5115133;28;19930;-72
2021/08/29 03:42:02;;;;;;;;;;;10.60;99.90;;;;;;5115048;28;19912;-72
2021/08/29 03:44:28;;;;;;;;;;;10.50;99.90;;;;;;5115083;28;19915;-72
2021/08/29 03:46:54;;;;;;;;;;;10.60;99.90;;;;;;5114324;28;19940;-72
2021/08/29 03:49:19;;;;;;;;;;;10.60;99.90;;;;;;5114943;28;19912;-72
2021/08/29 03:51:46;;;;;;;;;;;10.60;99.90;;;;;;5114938;28;19914;-72
2021/08/29 03:54:12;;;;;;;;;;;10.50;99.90;;;;;;5114976;28;19908;-72
2021/08/29 03:56:38;;;;;;;;;;;10.50;99.90;;;;;;5114621;28;20177;-72
2021/08/29 03:59:03;;;;;;;;;;;10.50;99.90;;;;;;5114741;28;19915;-72
2021/08/29 04:01:30;;;;;;;;;;;10.50;99.90;;;;;;5114712;28;19918;-72
2021/08/29 04:03:55;;;;;;;;;;;10.50;99.90;;;;;;5100533;28;19908;-72
2021/08/29 04:06:22;;;;;;;;;;;10.50;99.90;;;;;;5093874;28;19916;-72
2021/08/29 04:08:52;;;;;;;;;;;10.50;99.90;;;;;;5094345;28;20001;-72
2021/08/29 04:11:21;;;;;;;;;;;10.50;99.90;;;;;;5094189;28;19915;-72
2021/08/29 04:13:46;;;;;;;;;;;10.50;99.90;;;;;;5094018;28;19912;-72
2021/08/29 04:16:12;;;;;;;;;;;10.50;99.90;;;;;;5093745;28;20335;-72
2021/08/29 04:18:42;;;;;;;;;;;10.40;99.90;;;;;;5094008;28;19909;-72
2021/08/29 04:21:08;;;;;;;;;;;10.50;99.90;;;;;;5094186;28;19981;-72
2021/08/29 04:23:33;;;;;;;;;;;10.50;99.90;;;;;;5093683;28;19947;-72
2021/08/29 04:25:59;;;;;;;;;;;10.50;99.90;;;;;;5093832;28;19908;-72
2021/08/29 04:28:25;;;;;;;;;;;10.50;99.90;;;;;;5093100;28;19914;-72
2021/08/29 04:30:51;;;;;;;;;;;10.50;99.90;;;;;;5093799;28;19908;-72
2021/08/29 04:33:16;;;;;;;;;;;10.50;99.90;;;;;;5097320;28;19935;-72
2021/08/29 04:35:42;;;;;;;;;;;10.50;99.90;;;;;;5113968;28;19974;-72
2021/08/29 04:38:07;;;;;;;;;;;10.50;99.90;;;;;;5113820;28;19953;-72
2021/08/29 04:40:33;;;;;;;;;;;10.50;99.90;;;;;;5113846;28;20284;-72
2021/08/29 04:42:59;;;;;;;;;;;10.50;99.90;;;;;;5113823;28;19907;-72
2021/08/29 04:45:24;;;;;;;;;;;10.50;99.90;;;;;;5113861;28;19973;-72
2021/08/29 04:47:50;;;;;;;;;;;10.50;99.90;;;;;;5113405;28;20014;-72
2021/08/29 04:50:15;;;;;;;;;;;10.50;99.90;;;;;;5113811;28;19919;-72
2021/08/29 04:52:41;;;;;;;;;;;10.50;99.90;;;;;;5113830;28;19908;-73
2021/08/29 04:55:08;;;;;;;;;;;10.50;99.90;;;;;;5113717;28;19907;-72
2021/08/29 04:57:33;;;;;;;;;;;10.50;99.90;;;;;;5113194;28;19949;-72
2021/08/29 04:59:59;;;;;;;;;;;10.60;99.90;;;;;;5113584;28;20020;-72
2021/08/29 05:02:24;;;;;;;;;;;10.50;99.90;;;;;;5113385;28;20433;-72
2021/08/29 05:04:50;;;;;;;;;;;10.60;99.90;;;;;;5091763;28;19909;-72
2021/08/29 05:07:15;;;;;;;;;;;10.60;99.90;;;;;;5092729;28;19912;-72
2021/08/29 05:09:41;;;;;;;;;;;10.60;99.90;;;;;;5093074;28;19908;-72
2021/08/29 05:12:06;;;;;;;;;;;10.60;99.90;;;;;;5092768;28;20372;-72
2021/08/29 05:14:32;;;;;;;;;;;10.60;99.90;;;;;;5092964;28;19911;-72
2021/08/29 05:16:57;;;;;;;;;;;10.60;99.90;;;;;;5092587;28;19934;-72
2021/08/29 05:19:23;;;;;;;;;;;10.60;99.90;;;;;;5092841;28;20369;-72
2021/08/29 05:21:48;;;;;;;;;;;10.60;99.90;;;;;;5092667;28;20003;-72
2021/08/29 05:24:14;;;;;;;;;;;10.60;99.90;;;;;;5092801;28;19908;-72
2021/08/29 05:26:39;;;;;;;;;;;10.60;99.90;;;;;;5092179;28;20534;-72
2021/08/29 05:29:05;;;;;;;;;;;10.50;99.90;;;;;;5092678;28;19908;-72
2021/08/29 05:31:30;;;;;;;;;;;10.50;99.90;;;;;;5092416;28;19908;-72
2021/08/29 05:33:56;;;;;;;;;;;10.60;99.90;;;;;;5101965;28;19947;-72
2021/08/29 05:36:21;;;;;;;;;;;10.60;99.90;;;;;;5112350;28;19960;-72
2021/08/29 05:38:46;;;;;;;;;;;10.60;99.90;;;;;;5112818;28;19911;-72
2021/08/29 05:41:12;;;;;;;;;;;10.60;99.90;;;;;;5112387;28;20355;-72
2021/08/29 05:43:37;;;;;;;;;;;10.60;99.90;;;;;;5112670;28;19914;-72
2021/08/29 05:46:03;;;;;;;;;;;10.70;99.90;;;;;;5112246;28;20364;-72
2021/08/29 05:48:28;;;;;;;;;;;10.60;99.90;;;;;;5112468;28;20007;-72
2021/08/29 05:50:54;;;;;;;;;;;10.70;99.90;;;;;;5112491;28;19907;-72
2021/08/29 05:53:19;;;;;;;;;;;10.70;99.90;;;;;;5112030;28;19908;-72
2021/08/29 05:55:45;;;;;;;;;;;10.70;99.90;;;;;;5112300;28;19915;-72
2021/08/29 05:58:10;;;;;;;;;;;10.80;99.90;;;;;;5112119;28;19911;-73
2021/08/29 06:00:36;;;;;;;;;;;10.80;99.90;;;;;;5112227;28;19916;-72
2021/08/29 06:03:02;;;;;;;;;;;10.90;99.90;;;;;;5108504;28;19951;-72
2021/08/29 06:05:28;;;;;;;;;;;10.90;99.90;;;;;;5091711;28;19908;-73
2021/08/29 06:07:53;;;;;;;;;;;10.90;99.90;;;;;;5091581;28;19908;-72
2021/08/29 06:10:19;;;;;;;;;;;10.90;99.90;;;;;;5091815;28;19908;-72
2021/08/29 06:12:45;;;;;;;;;;;10.90;99.90;;;;;;5091858;28;19912;-72
2021/08/29 06:15:11;;;;;;;;;;;11.00;99.90;;;;;;5092225;28;20277;-72
2021/08/29 06:17:36;;;;;;;;;;;11.00;99.90;;;;;;5091471;28;19908;-72
2021/08/29 06:20:03;;;;;;;;;;;10.90;99.90;;;;;;5092159;28;19951;-72
2021/08/29 06:22:28;;;;;;;;;;;10.90;99.90;;;;;;5091499;28;19915;-72
2021/08/29 06:24:54;;;;;;;;;;;10.90;99.90;;;;;;5091619;28;20036;-72
2021/08/29 06:27:19;;;;;;;;;;;11.00;99.90;;;;;;5091329;28;19912;-71
2021/08/29 06:29:45;;;;;;;;;;;11.00;99.90;;;;;;5091657;28;19908;-72
2021/08/29 06:32:10;;;;;;;;;;;11.00;99.90;;;;;;5091500;28;19908;-72
2021/08/29 06:34:36;;;;;;;;;;;11.20;99.90;;;;;;5088893;28;19912;-72
2021/08/29 06:37:01;;;;;;;;;;;11.20;99.90;;;;;;5091149;28;19923;-72
2021/08/29 06:39:27;;;;;;;;;;;11.30;99.90;;;;;;5091510;28;20361;-73
2021/08/29 06:41:53;;;;;;;;;;;11.40;99.90;;;;;;5091342;28;19912;-73
2021/08/29 06:44:18;;;;;;;;;;;11.40;99.90;;;;;;5091533;28;19908;-72
2021/08/29 06:46:44;;;;;;;;;;;11.40;99.90;;;;;;5091302;28;19923;-72
2021/08/29 06:49:09;;;;;;;;;;;11.30;99.90;;;;;;5091586;28;19962;-72
2021/08/29 06:51:35;;;;;;;;;;;11.30;99.90;;;;;;5091360;28;20300;-72
2021/08/29 06:54:00;;;;;;;;;;;11.40;99.90;;;;;;5091261;28;19908;-72
2021/08/29 06:56:26;;;;;;;;;;;11.40;99.90;;;;;;5091000;28;19923;-72
2021/08/29 06:58:51;;;;;;;;;;;11.40;99.90;;;;;;5091616;28;20276;-72
2021/08/29 07:01:17;;;;;;;;;;;11.40;99.90;;;;;;5091190;28;19920;-72
2021/08/29 07:03:42;;;;;;;;;;;11.50;99.90;;;;;;5089492;28;20380;-72
2021/08/29 07:06:07;;;;;;;;;;;11.70;99.90;;;;;;5092965;28;20359;-72
2021/08/29 07:08:33;;;;;;;;;;;11.50;99.90;;;;;;5095364;28;19961;-72
2021/08/29 07:10:59;;;;;;;;;;;11.70;99.90;;;;;;5095151;28;20288;-72
2021/08/29 07:13:24;;;;;;;;;;;11.70;99.90;;;;;;5095230;28;19909;-73
2021/08/29 07:15:50;;;;;;;;;;;11.80;99.90;;;;;;5095308;28;19987;-72
2021/08/29 07:18:15;;;;;;;;;;;11.80;99.90;;;;;;5095101;28;20352;-72
2021/08/29 07:20:41;;;;;;;;;;;11.90;99.90;;;;;;5095017;28;19916;-71
2021/08/29 07:23:06;;;;;;;;;;;11.90;99.90;;;;;;5095206;28;19915;-72
2021/08/29 07:25:32;;;;;;;;;;;11.90;99.90;;;;;;5094930;28;19908;-72
2021/08/29 07:27:57;;;;;;;;;;;11.90;99.90;;;;;;5094650;28;19908;-72
2021/08/29 07:30:23;;;;;;;;;;;11.90;99.90;;;;;;5094871;28;19915;-72
2021/08/29 07:32:48;;;;;;;;;;;12.00;99.90;;;;;;5093667;28;19995;-72
2021/08/29 07:35:14;;;;;;;;;;;12.00;99.90;;;;;;5094756;28;20397;-72
2021/08/29 07:37:39;;;;;;;;;;;12.20;99.90;;;;;;5094410;28;19908;-72
2021/08/29 07:40:05;;;;;;;;;;;12.30;99.90;;;;;;5094593;28;19916;-73
2021/08/29 07:42:31;;;;;;;;;;;12.40;99.90;;;;;;5094563;28;19918;-72
2021/08/29 07:44:56;;;;;;;;;;;12.50;99.90;;;;;;5094887;28;20014;-73
2021/08/29 07:47:22;;;;;;;;;;;12.50;99.90;;;;;;5094006;28;19916;-72
2021/08/29 07:49:48;;;;;;;;;;;12.60;99.90;;;;;;5094877;28;19931;-72
2021/08/29 07:52:13;;;;;;;;;;;12.70;99.90;;;;;;5094538;28;20349;-73
2021/08/29 07:54:39;;;;;;;;;;;12.90;99.90;;;;;;5094277;28;20007;-72
2021/08/29 07:57:04;;;;;;;;;;;13.00;99.90;;;;;;5094119;28;19908;-73
2021/08/29 07:59:30;;;;;;;;;;;13.00;99.90;;;;;;5094288;28;20006;-72
2021/08/29 08:01:55;;;;;;;;;;;13.10;99.90;;;;;;5094243;28;19916;-73
2021/08/29 08:04:21;;;;;;;;;;;13.10;99.90;;;;;;5093956;28;19908;-73
2021/08/29 08:06:46;;;;;;;;;;;13.10;99.90;;;;;;5093899;28;19916;-73
2021/08/29 08:09:11;;;;;;;;;;;13.10;99.90;;;;;;5094185;28;20290;-73
2021/08/29 08:11:37;;;;;;;;;;;13.30;99.90;;;;;;5094168;28;19915;-73
2021/08/29 08:14:03;;;;;;;;;;;13.10;99.90;;;;;;5094029;28;19909;-73
2021/08/29 08:16:28;;;;;;;;;;;13.10;99.90;;;;;;5093343;28;19947;-72
2021/08/29 08:18:53;;;;;;;;;;;13.20;99.90;;;;;;5094057;28;19951;-73
2021/08/29 08:21:19;;;;;;;;;;;13.30;99.90;;;;;;5093863;28;20003;-72
2021/08/29 08:23:45;;;;;;;;;;;13.30;99.90;;;;;;5094350;28;19915;-73
2021/08/29 08:26:11;;;;;;;;;;;13.20;99.90;;;;;;5093511;28;20280;-72
2021/08/29 08:28:36;;;;;;;;;;;13.00;99.90;;;;;;5093673;28;19912;-73
2021/08/29 08:31:02;;;;;;;;;;;12.80;99.90;;;;;;5093839;28;20114;-72
2021/08/29 08:33:27;;;;;;;;;;;12.90;99.90;;;;;;5093357;28;20418;-73
2021/08/29 08:35:53;;;;;;;;;;;13.10;99.90;;;;;;5089861;28;20003;-72
2021/08/29 08:38:18;;;;;;;;;;;13.00;99.90;;;;;;5113351;28;19912;-72
2021/08/29 08:40:44;;;;;;;;;;;13.00;99.90;;;;;;5113766;28;19947;-73
2021/08/29 08:43:09;;;;;;;;;;;13.20;99.90;;;;;;5113867;28;19961;-72
2021/08/29 08:45:35;;;;;;;;;;;13.20;99.90;;;;;;5113744;28;20025;-72
2021/08/29 08:48:02;;;;;;;;;;;13.20;99.90;;;;;;5113580;28;19908;-73
2021/08/29 08:50:28;;;;;;;;;;;13.00;99.90;;;;;;5113840;28;20018;-73
2021/08/29 08:52:59;;;;;;;;;;;13.20;99.90;;;;;;5113492;28;19960;-72
2021/08/29 08:55:25;;;;;;;;;;;13.20;99.90;;;;;;5089539;28;20165;-73
2021/08/29 08:57:51;;;;;;;;;;;13.40;99.90;;;;;;5092629;28;19966;-73
2021/08/29 09:00:16;;;;;;;;;;;13.40;99.90;;;;;;5093059;28;20360;-73
2021/08/29 09:02:42;;;;;;;;;;;13.60;99.90;;;;;;5093170;28;19915;-73
2021/08/29 09:05:08;;;;;;;;;;;13.40;99.90;;;;;;5093047;28;19908;-72
2021/08/29 09:07:34;;;;;;;;;;;13.50;99.90;;;;;;5092457;28;20257;-73
2021/08/29 09:09:59;;;;;;;;;;;13.80;99.90;;;;;;5092893;28;19914;-72
2021/08/29 09:12:25;;;;;;;;;;;13.50;99.90;;;;;;5092855;28;19908;-73
2021/08/29 09:14:57;;;;;;;;;;;13.80;99.90;;;;;;5091646;28;19936;-73
2021/08/29 09:17:23;;;;;;;;;;;13.40;99.90;;;;;;5092479;28;19909;-73
2021/08/29 09:19:49;;;;;;;;;;;13.60;99.90;;;;;;5090869;28;20019;-74
2021/08/29 09:22:23;;;;;;;;;;;13.50;99.90;;;;;;5092414;28;20003;-73
2021/08/29 09:24:51;;;;;;;;;;;13.40;99.90;;;;;;5092736;28;19908;-73
2021/08/29 09:27:20;;;;;;;;;;;13.20;99.90;;;;;;5092144;28;19947;-73
2021/08/29 09:29:46;;;;;;;;;;;13.20;99.90;;;;;;5092039;28;20273;-73
2021/08/29 09:32:11;;;;;;;;;;;13.10;99.90;;;;;;5093077;28;19908;-73
2021/08/29 09:34:37;;;;;;;;;;;13.20;99.90;;;;;;5092402;28;19908;-73
2021/08/29 09:37:02;;;;;;;;;;;13.20;99.90;;;;;;5092006;28;19915;-73
2021/08/29 09:39:28;;;;;;;;;;;13.30;99.90;;;;;;5092413;28;19912;-73
2021/08/29 09:42:03;;;;;;;;;;;13.20;99.90;;;;;;5092258;28;20097;-74
2021/08/29 09:44:33;;;;;;;;;;;13.30;99.90;;;;;;5092431;28;19909;-73
2021/08/29 09:47:03;;;;;;;;;;;13.30;99.90;;;;;;5091636;28;20369;-73
2021/08/29 09:49:30;;;;;;;;;;;13.40;99.90;;;;;;5092271;28;19908;-72
2021/08/29 09:51:56;;;;;;;;;;;13.20;99.90;;;;;;5090932;28;20467;-73
2021/08/29 09:54:33;;;;;;;;;;;13.10;99.90;;;;;;5092248;28;19908;-73
2021/08/29 09:57:00;;;;;;;;;;;13.20;99.90;;;;;;5091591;28;19955;-72
2021/08/29 09:59:46;;;;;;;;;;;13.10;99.90;;;;;;5091977;28;19912;-73
2021/08/29 10:02:19;;;;;;;;;;;13.30;99.90;;;;;;5091899;28;19919;-73
2021/08/29 10:04:44;;;;;;;;;;;13.00;99.90;;;;;;5092026;28;19908;-73
2021/08/29 10:07:10;;;;;;;;;;;13.20;99.90;;;;;;5091604;28;19915;-73
2021/08/29 10:09:36;;;;;;;;;;;13.40;99.90;;;;;;5085680;28;19939;-73
2021/08/29 10:12:02;;;;;;;;;;;13.20;99.90;;;;;;5090842;28;20037;-73
2021/08/29 10:14:28;;;;;;;;;;;13.30;99.90;;;;;;5092016;28;19954;-73
2021/08/29 10:16:54;;;;;;;;;;;13.30;99.90;;;;;;5091637;28;19912;-73
2021/08/29 10:19:19;;;;;;;;;;;13.60;99.90;;;;;;5091759;28;19915;-73
2021/08/29 10:21:45;;;;;;;;;;;14.00;99.90;;;;;;5091455;28;19913;-72
2021/08/29 10:24:12;;;;;;;;;;;14.30;99.90;;;;;;5091728;28;19908;-74
2021/08/29 10:26:40;;;;;;;;;;;14.30;99.90;;;;;;5091050;28;19909;-73
2021/08/29 10:29:14;;;;;;;;;;;14.20;99.90;;;;;;5091610;28;19915;-72
2021/08/29 10:31:45;;;;;;;;;;;14.20;99.90;;;;;;5091494;28;20186;-73
2021/08/29 10:34:11;;;;;;;;;;;14.40;99.90;;;;;;5091534;28;20277;-72
2021/08/29 10:36:37;;;;;;;;;;;14.00;99.90;;;;;;5085686;28;19916;-73
2021/08/29 10:39:03;;;;;;;;;;;14.20;99.90;;;;;;5091103;28;19916;-74
2021/08/29 10:41:29;;;;;;;;;;;14.50;99.90;;;;;;5091134;28;19916;-73
2021/08/29 10:43:54;;;;;;;;;;;14.20;99.90;;;;;;5091392;28;20006;-72
2021/08/29 10:46:20;;;;;;;;;;;14.10;99.90;;;;;;5090947;28;19999;-73
2021/08/29 10:48:47;;;;;;;;;;;13.80;99.90;;;;;;5091425;28;19961;-73
2021/08/29 10:51:13;;;;;;;;;;;13.60;99.90;;;;;;5091271;28;19908;-73
2021/08/29 10:53:53;;;;;;;;;;;13.70;99.90;;;;;;5091300;28;19943;-73
2021/08/29 10:56:18;;;;;;;;;;;13.80;99.90;;;;;;5090847;28;19915;-73
2021/08/29 10:58:44;;;;;;;;;;;13.70;99.90;;;;;;5091298;28;19908;-73
2021/08/29 11:01:28;;;;;;;;;;;13.80;99.90;;;;;;5091229;28;20221;-73
2021/08/29 11:03:54;;;;;;;;;;;13.40;99.90;;;;;;5091188;28;19943;-73
2021/08/29 11:06:38;;;;;;;;;;;13.30;99.90;;;;;;5086147;28;20366;-73
2021/08/29 11:09:22;;;;;;;;;;;13.50;99.90;;;;;;5091018;28;19944;-73
2021/08/29 11:11:48;;;;;;;;;;;13.40;99.90;;;;;;5090962;28;19947;-73
2021/08/29 11:14:32;;;;;;;;;;;13.60;99.90;;;;;;5091123;28;19989;-73
2021/08/29 11:17:14;;;;;;;;;;;14.10;99.90;;;;;;5090576;28;19913;-73
2021/08/29 11:19:40;;;;;;;;;;;13.90;99.90;;;;;;5091234;28;19908;-72
2021/08/29 11:22:09;;;;;;;;;;;13.90;99.90;;;;;;5091242;28;20054;-72
2021/08/29 11:24:48;;;;;;;;;;;14.00;99.90;;;;;;5090965;28;19953;-72
2021/08/29 11:27:32;;;;;;;;;;;14.20;99.90;;;;;;5090526;28;19916;-72
2021/08/29 11:29:58;;;;;;;;;;;13.90;99.90;;;;;;5091011;28;19908;-72
2021/08/29 11:32:30;;;;;;;;;;;14.20;99.90;;;;;;5090982;28;19916;-72
2021/08/29 11:35:02;;;;;;;;;;;13.90;99.90;;;;;;5091123;28;19956;-73
2021/08/29 11:37:28;;;;;;;;;;;14.00;99.90;;;;;;5101574;28;19907;-73
2021/08/29 11:40:00;;;;;;;;;;;13.80;99.90;;;;;;5111165;28;19908;-73
2021/08/29 11:42:27;;;;;;;;;;;13.70;99.90;;;;;;5109973;28;20291;-73
2021/08/29 11:44:54;;;;;;;;;;;13.90;99.90;;;;;;5111174;28;19908;-73
2021/08/29 11:47:21;;;;;;;;;;;13.90;99.90;;;;;;5111164;28;20265;-73
2021/08/29 11:49:54;;;;;;;;;;;14.00;99.90;;;;;;5111110;28;19919;-73
2021/08/29 11:52:29;;;;;;;;;;;14.20;99.90;;;;;;5113286;28;20292;-72
2021/08/29 11:55:08;;;;;;;;;;;14.40;99.90;;;;;;5114840;28;20003;-73
2021/08/29 11:57:47;;;;;;;;;;;14.40;99.90;;;;;;5114550;28;19915;-72
2021/08/29 12:00:13;;;;;;;;;;;14.70;99.90;;;;;;5114691;28;19914;-73
2021/08/29 12:02:41;;;;;;;;;;;14.60;99.90;;;;;;5114332;28;20006;-72
2021/08/29 12:05:16;;;;;;;;;;;14.40;99.90;;;;;;5114479;28;20090;-72
2021/08/29 12:07:45;;;;;;;;;;;14.20;99.90;;;;;;5090499;28;19908;-73
2021/08/29 12:10:11;;;;;;;;;;;14.20;99.90;;;;;;5094051;28;20353;-73
2021/08/29 12:12:38;;;;;;;;;;;14.00;99.90;;;;;;5094019;28;19919;-73
2021/08/29 12:15:04;;;;;;;;;;;13.70;99.90;;;;;;5093868;28;19912;-73
2021/08/29 12:17:30;;;;;;;;;;;13.70;99.90;;;;;;5093684;28;19930;-73
2021/08/29 12:19:56;;;;;;;;;;;13.60;99.90;;;;;;5093954;28;19908;-73
2021/08/29 12:22:22;;;;;;;;;;;13.70;99.90;;;;;;5093829;28;20434;-73
2021/08/29 12:24:48;;;;;;;;;;;13.90;99.90;;;;;;5093827;28;20376;-73
2021/08/29 12:27:15;;;;;;;;;;;14.20;99.90;;;;;;5093387;28;19955;-73
2021/08/29 12:29:45;;;;;;;;;;;14.50;99.90;;;;;;5093520;28;19908;-72
2021/08/29 12:32:12;;;;;;;;;;;14.30;99.90;;;;;;5093711;28;20352;-72
2021/08/29 12:34:37;;;;;;;;;;;14.40;99.90;;;;;;5093813;28;20415;-73
2021/08/29 12:37:04;;;;;;;;;;;14.40;99.90;;;;;;5087742;28;20010;-73
2021/08/29 12:39:29;;;;;;;;;;;14.50;99.90;;;;;;5093453;28;19908;-73
2021/08/29 12:41:55;;;;;;;;;;;14.80;99.90;;;;;;5093222;28;19934;-72
2021/08/29 12:44:32;;;;;;;;;;;14.60;99.90;;;;;;5093299;28;19958;-73
2021/08/29 12:46:57;;;;;;;;;;;14.70;99.90;;;;;;5092834;28;19994;-72
2021/08/29 12:49:22;;;;;;;;;;;14.40;99.90;;;;;;5093412;28;20345;-72
2021/08/29 12:51:48;;;;;;;;;;;14.40;99.90;;;;;;5093115;28;20349;-74
2021/08/29 12:54:14;;;;;;;;;;;14.20;99.90;;;;;;5093290;28;19916;-73
2021/08/29 12:56:39;;;;;;;;;;;13.70;99.90;;;;;;5092668;28;20006;-72
2021/08/29 12:59:05;;;;;;;;;;;13.60;99.90;;;;;;5093114;28;19912;-73
2021/08/29 13:01:30;;;;;;;;;;;13.50;99.90;;;;;;5092992;28;20395;-74
2021/08/29 13:03:56;;;;;;;;;;;13.60;99.90;;;;;;5091865;28;19912;-73
2021/08/29 13:06:22;;;;;;;;;;;13.70;99.90;;;;;;5088254;28;19916;-73
2021/08/29 13:08:50;;;;;;;;;;;13.90;99.90;;;;;;5092621;28;19908;-73
2021/08/29 13:11:16;;;;;;;;;;;14.20;99.90;;;;;;5092561;28;19908;-72
2021/08/29 13:13:46;;;;;;;;;;;14.30;99.90;;;;;;5092853;28;19908;-73
2021/08/29 13:16:15;;;;;;;;;;;14.10;99.90;;;;;;5092213;28;19908;-73
2021/08/29 13:18:42;;;;;;;;;;;14.00;99.90;;;;;;5092779;28;19912;-72
2021/08/29 13:21:20;;;;;;;;;;;14.00;99.90;;;;;;5092441;28;19912;-73
2021/08/29 13:23:46;;;;;;;;;;;14.10;99.90;;;;;;5092562;28;20322;-73
2021/08/29 13:26:14;;;;;;;;;;;14.30;99.90;;;;;;5092082;28;19962;-73
2021/08/29 13:28:48;;;;;;;;;;;14.10;99.90;;;;;;5092532;28;19908;-73
2021/08/29 13:31:14;;;;;;;;;;;14.20;99.90;;;;;;5092475;28;19919;-73
2021/08/29 13:33:40;;;;;;;;;;;14.10;99.90;;;;;;5092515;28;20323;-73
2021/08/29 13:36:06;;;;;;;;;;;14.00;99.90;;;;;;5087778;28;19938;-73
2021/08/29 13:38:33;;;;;;;;;;;13.90;99.90;;;;;;5092028;28;19912;-73
2021/08/29 13:41:00;;;;;;;;;;;13.90;99.90;;;;;;5092169;28;20392;-73
2021/08/29 13:43:29;;;;;;;;;;;13.90;99.90;;;;;;5092630;28;19908;-73
2021/08/29 13:45:57;;;;;;;;;;;13.80;99.90;;;;;;5092070;28;19916;-73
2021/08/29 13:48:23;;;;;;;;;;;13.80;99.90;;;;;;5091837;28;19909;-73
2021/08/29 13:50:49;;;;;;;;;;;13.60;99.90;;;;;;5091750;28;20284;-73
2021/08/29 13:53:14;;;;;;;;;;;13.60;99.90;;;;;;5092092;28;19908;-72
2021/08/29 13:55:40;;;;;;;;;;;13.60;99.90;;;;;;5092099;28;20316;-73
2021/08/29 13:58:07;;;;;;;;;;;13.80;99.90;;;;;;5091566;28;20503;-73
2021/08/29 14:00:33;;;;;;;;;;;13.90;99.90;;;;;;5091805;28;19938;-73
2021/08/29 14:03:01;;;;;;;;;;;13.80;99.90;;;;;;5091932;28;19965;-73
2021/08/29 14:05:31;;;;;;;;;;;13.70;99.90;;;;;;5090346;28;19938;-73
2021/08/29 14:07:57;;;;;;;;;;;13.80;99.90;;;;;;5089915;28;19912;-73
2021/08/29 14:10:22;;;;;;;;;;;13.80;99.90;;;;;;5091857;28;19908;-73
2021/08/29 14:12:51;;;;;;;;;;;13.80;99.90;;;;;;5091777;28;19931;-73
2021/08/29 14:15:17;;;;;;;;;;;14.00;99.90;;;;;;5091441;28;20296;-74
2021/08/29 14:17:43;;;;;;;;;;;14.00;99.90;;;;;;5091871;28;19947;-73